sensor_id;sensor_type;location;lat;lon;timestamp;pressure;altitude;pressure_sealevel;temperature;humidity
16738;BME280;17906;47.684;10.806;2022-07-29T00:01:14;93319.53;;;13.94;90.66
16738;BME280;17906;47.684;10.806;2022-07-29T00:03:40;93305.91;;;13.94;90.30
16738;BME280;17906;47.684;10.806;2022-07-29T00:06:07;93312.16;;;13.90;90.09
16738;BME280;17906;47.684;10.806;2022-07-29T00:08:35;93311.63;;;13.93;89.29
16738;BME280;17906;47.684;10.806;2022-07-29T00:11:01;93316.25;;;13.87;89.83
16738;BME280;17906;47.684;10.806;2022-07-29T00:13:28;93311.03;;;13.81;90.40
16738;BME280;17906;47.684;10.806;2022-07-29T00:15:55;93309.69;;;13.78;90.74
16738;BME280;17906;47.684;10.806;2022-07-29T00:18:21;93315.94;;;13.79;90.85
16738;BME280;17906;47.684;10.806;2022-07-29T00:20:48;93306.66;;;13.75;90.57
16738;BME280;17906;47.684;10.806;2022-07-29T00:23:15;93310.25;;;13.90;89.67
16738;BME280;17906;47.684;10.806;2022-07-29T00:25:42;93308.56;;;13.74;90.34
16738;BME280;17906;47.684;10.806;2022-07-29T00:28:09;93297.31;;;13.55;91.90
16738;BME280;17906;47.684;10.806;2022-07-29T00:30:36;93285.06;;;13.63;91.42
16738;BME280;17906;47.684;10.806;2022-07-29T00:33:02;93278.84;;;13.73;91.08
16738;BME280;17906;47.684;10.806;2022-07-29T00:35:29;93280.16;;;13.60;90.61
16738;BME280;17906;47.684;10.806;2022-07-29T00:38:10;93277.91;;;13.42;90.32
16738;BME280;17906;47.684;10.806;2022-07-29T00:40:38;93274.63;;;13.40;89.99
16738;BME280;17906;47.684;10.806;2022-07-29T00:43:06;93272.75;;;13.45;89.15
16738;BME280;17906;47.684;10.806;2022-07-29T00:45:33;93269.34;;;13.23;88.31
16738;BME280;17906;47.684;10.806;2022-07-29T00:48:00;93278.56;;;13.17;89.06
16738;BME280;17906;47.684;10.806;2022-07-29T00:50:27;93278.22;;;13.08;89.92
16738;BME280;17906;47.684;10.806;2022-07-29T00:52:54;93266.31;;;13.19;90.09
16738;BME280;17906;47.684;10.806;2022-07-29T00:55:21;93273.97;;;13.22;90.75
16738;BME280;17906;47.684;10.806;2022-07-29T00:57:48;93264.94;;;13.17;90.56
16738;BME280;17906;47.684;10.806;2022-07-29T01:00:19;93254.47;;;12.98;91.78
16738;BME280;17906;47.684;10.806;2022-07-29T01:02:46;93251.81;;;13.03;92.17
16738;BME280;17906;47.684;10.806;2022-07-29T01:05:14;93265.56;;;12.87;91.43
16738;BME280;17906;47.684;10.806;2022-07-29T01:07:42;93264.47;;;12.83;90.46
16738;BME280;17906;47.684;10.806;2022-07-29T01:10:12;93255.00;;;12.90;90.10
16738;BME280;17906;47.684;10.806;2022-07-29T01:12:39;93247.13;;;12.99;89.41
16738;BME280;17906;47.684;10.806;2022-07-29T01:15:08;93243.59;;;12.98;89.84
16738;BME280;17906;47.684;10.806;2022-07-29T01:17:42;93243.88;;;12.97;89.21
16738;BME280;17906;47.684;10.806;2022-07-29T01:20:14;93249.50;;;12.85;89.70
16738;BME280;17906;47.684;10.806;2022-07-29T01:25:53;93250.16;;;12.60;90.90
16738;BME280;17906;47.684;10.806;2022-07-29T01:28:55;93252.91;;;12.65;91.20
16738;BME280;17906;47.684;10.806;2022-07-29T01:31:28;93243.34;;;12.58;91.06
16738;BME280;17906;47.684;10.806;2022-07-29T01:34:01;93235.66;;;12.49;92.20
16738;BME280;17906;47.684;10.806;2022-07-29T01:36:33;93232.81;;;12.34;92.36
16738;BME280;17906;47.684;10.806;2022-07-29T01:39:06;93222.81;;;12.40;92.17
16738;BME280;17906;47.684;10.806;2022-07-29T01:41:36;93216.75;;;12.33;92.28
16738;BME280;17906;47.684;10.806;2022-07-29T01:44:11;93217.72;;;12.16;91.89
16738;BME280;17906;47.684;10.806;2022-07-29T01:46:41;93224.66;;;12.07;91.15
16738;BME280;17906;47.684;10.806;2022-07-29T01:49:13;93222.50;;;12.09;90.86
16738;BME280;17906;47.684;10.806;2022-07-29T01:51:45;93232.28;;;12.10;90.73
16738;BME280;17906;47.684;10.806;2022-07-29T01:54:16;93226.97;;;12.15;91.42
16738;BME280;17906;47.684;10.806;2022-07-29T01:56:45;93208.78;;;12.21;92.20
16738;BME280;17906;47.684;10.806;2022-07-29T01:59:16;93210.22;;;12.29;92.30
16738;BME280;17906;47.684;10.806;2022-07-29T02:01:45;93204.50;;;12.30;92.35
16738;BME280;17906;47.684;10.806;2022-07-29T02:04:15;93202.09;;;12.34;92.00
16738;BME280;17906;47.684;10.806;2022-07-29T02:06:44;93194.25;;;12.37;92.91
16738;BME280;17906;47.684;10.806;2022-07-29T02:09:12;93189.22;;;12.24;92.35
16738;BME280;17906;47.684;10.806;2022-07-29T02:11:45;93193.25;;;12.16;92.34
16738;BME280;17906;47.684;10.806;2022-07-29T02:14:15;93181.47;;;12.11;92.27
16738;BME280;17906;47.684;10.806;2022-07-29T02:16:44;93173.41;;;12.16;92.27
16738;BME280;17906;47.684;10.806;2022-07-29T02:19:13;93171.97;;;12.08;92.11
16738;BME280;17906;47.684;10.806;2022-07-29T02:21:40;93174.97;;;12.12;92.37
16738;BME280;17906;47.684;10.806;2022-07-29T02:24:11;93172.25;;;12.12;92.48
16738;BME280;17906;47.684;10.806;2022-07-29T02:26:39;93175.09;;;12.22;92.96
16738;BME280;17906;47.684;10.806;2022-07-29T02:29:08;93169.19;;;12.30;92.79
16738;BME280;17906;47.684;10.806;2022-07-29T02:31:37;93166.09;;;12.16;92.29
16738;BME280;17906;47.684;10.806;2022-07-29T02:34:08;93163.41;;;12.22;92.04
16738;BME280;17906;47.684;10.806;2022-07-29T02:36:36;93159.66;;;12.28;91.86
16738;BME280;17906;47.684;10.806;2022-07-29T02:39:04;93159.31;;;12.19;91.62
16738;BME280;17906;47.684;10.806;2022-07-29T02:41:37;93156.75;;;12.07;92.28
16738;BME280;17906;47.684;10.806;2022-07-29T02:44:09;93163.09;;;12.18;92.19
16738;BME280;17906;47.684;10.806;2022-07-29T02:46:42;93153.75;;;12.09;91.75
16738;BME280;17906;47.684;10.806;2022-07-29T02:49:13;93157.44;;;11.93;92.74
16738;BME280;17906;47.684;10.806;2022-07-29T02:51:43;93154.03;;;12.07;92.28
16738;BME280;17906;47.684;10.806;2022-07-29T02:54:19;93156.63;;;11.92;92.77
16738;BME280;17906;47.684;10.806;2022-07-29T02:56:49;93153.72;;;11.72;93.50
16738;BME280;17906;47.684;10.806;2022-07-29T02:59:22;93153.38;;;11.63;93.76
16738;BME280;17906;47.684;10.806;2022-07-29T03:01:54;93160.88;;;11.56;93.00
16738;BME280;17906;47.684;10.806;2022-07-29T03:04:24;93160.88;;;11.56;93.53
16738;BME280;17906;47.684;10.806;2022-07-29T03:06:52;93156.00;;;11.58;93.00
16738;BME280;17906;47.684;10.806;2022-07-29T03:09:20;93153.13;;;11.70;92.54
16738;BME280;17906;47.684;10.806;2022-07-29T03:11:48;93146.41;;;11.77;91.24
16738;BME280;17906;47.684;10.806;2022-07-29T03:14:15;93150.41;;;11.70;90.25
16738;BME280;17906;47.684;10.806;2022-07-29T03:16:42;93154.75;;;11.39;91.82
16738;BME280;17906;47.684;10.806;2022-07-29T03:19:10;93152.38;;;11.20;91.50
16738;BME280;17906;47.684;10.806;2022-07-29T03:21:37;93151.13;;;11.06;92.87
16738;BME280;17906;47.684;10.806;2022-07-29T03:24:04;93152.25;;;11.10;93.25
16738;BME280;17906;47.684;10.806;2022-07-29T03:26:31;93152.06;;;11.17;91.93
16738;BME280;17906;47.684;10.806;2022-07-29T03:28:58;93162.66;;;11.18;91.64
16738;BME280;17906;47.684;10.806;2022-07-29T03:31:24;93150.59;;;11.31;91.16
16738;BME280;17906;47.684;10.806;2022-07-29T03:33:51;93154.31;;;11.25;90.25
16738;BME280;17906;47.684;10.806;2022-07-29T03:36:19;93154.91;;;11.27;89.87
16738;BME280;17906;47.684;10.806;2022-07-29T03:38:45;93152.75;;;11.29;89.69
16738;BME280;17906;47.684;10.806;2022-07-29T03:41:14;93153.75;;;11.23;90.71
16738;BME280;17906;47.684;10.806;2022-07-29T03:43:43;93147.19;;;11.19;90.41
16738;BME280;17906;47.684;10.806;2022-07-29T03:46:11;93149.25;;;11.07;89.76
16738;BME280;17906;47.684;10.806;2022-07-29T03:48:42;93148.66;;;11.04;90.37
16738;BME280;17906;47.684;10.806;2022-07-29T03:51:10;93145.50;;;10.91;90.86
16738;BME280;17906;47.684;10.806;2022-07-29T03:53:38;93151.09;;;10.84;90.98
16738;BME280;17906;47.684;10.806;2022-07-29T03:56:05;93147.31;;;10.85;91.47
16738;BME280;17906;47.684;10.806;2022-07-29T03:58:33;93155.09;;;10.60;91.73
16738;BME280;17906;47.684;10.806;2022-07-29T04:01:00;93158.72;;;10.65;92.33
16738;BME280;17906;47.684;10.806;2022-07-29T04:03:27;93159.84;;;10.69;92.41
16738;BME280;17906;47.684;10.806;2022-07-29T04:06:01;93154.88;;;10.83;91.28
16738;BME280;17906;47.684;10.806;2022-07-29T04:08:28;93152.09;;;10.78;90.93
16738;BME280;17906;47.684;10.806;2022-07-29T04:10:56;93165.47;;;10.85;91.28
16738;BME280;17906;47.684;10.806;2022-07-29T04:13:23;93166.59;;;10.67;90.99
16738;BME280;17906;47.684;10.806;2022-07-29T04:15:49;93168.41;;;10.61;91.58
16738;BME280;17906;47.684;10.806;2022-07-29T04:18:16;93166.66;;;10.72;92.42
16738;BME280;17906;47.684;10.806;2022-07-29T04:20:43;93170.06;;;10.62;93.48
16738;BME280;17906;47.684;10.806;2022-07-29T04:23:09;93175.25;;;10.64;93.83
16738;BME280;17906;47.684;10.806;2022-07-29T04:25:37;93174.66;;;10.62;93.73
16738;BME280;17906;47.684;10.806;2022-07-29T04:28:07;93181.53;;;10.69;93.68
16738;BME280;17906;47.684;10.806;2022-07-29T04:30:35;93186.22;;;10.74;92.64
16738;BME280;17906;47.684;10.806;2022-07-29T04:33:03;93187.34;;;10.78;92.76
16738;BME280;17906;47.684;10.806;2022-07-29T04:35:30;93182.69;;;10.73;92.85
16738;BME280;17906;47.684;10.806;2022-07-29T04:37:57;93181.41;;;10.81;93.02
16738;BME280;17906;47.684;10.806;2022-07-29T04:40:23;93185.75;;;10.82;93.29
16738;BME280;17906;47.684;10.806;2022-07-29T04:42:50;93186.84;;;10.81;93.38
16738;BME280;17906;47.684;10.806;2022-07-29T04:45:18;93192.69;;;10.90;93.08
16738;BME280;17906;47.684;10.806;2022-07-29T04:47:45;93194.16;;;10.97;92.81
16738;BME280;17906;47.684;10.806;2022-07-29T04:50:12;93191.00;;;11.06;92.77
16738;BME280;17906;47.684;10.806;2022-07-29T04:52:38;93187.69;;;11.03;93.34
16738;BME280;17906;47.684;10.806;2022-07-29T04:55:05;93199.88;;;11.01;93.91
16738;BME280;17906;47.684;10.806;2022-07-29T04:57:32;93199.06;;;11.00;94.42
16738;BME280;17906;47.684;10.806;2022-07-29T04:59:59;93192.56;;;11.01;95.06
16738;BME280;17906;47.684;10.806;2022-07-29T05:02:27;93186.44;;;11.11;95.48
16738;BME280;17906;47.684;10.806;2022-07-29T05:04:54;93188.09;;;11.12;95.06
16738;BME280;17906;47.684;10.806;2022-07-29T05:07:20;93194.88;;;11.15;94.82
16738;BME280;17906;47.684;10.806;2022-07-29T05:09:47;93188.66;;;11.14;94.80
16738;BME280;17906;47.684;10.806;2022-07-29T05:12:14;93189.53;;;11.20;94.88
16738;BME280;17906;47.684;10.806;2022-07-29T05:14:40;93191.94;;;11.16;95.25
16738;BME280;17906;47.684;10.806;2022-07-29T05:17:07;93193.19;;;11.09;95.13
16738;BME280;17906;47.684;10.806;2022-07-29T05:19:35;93183.03;;;11.21;94.57
16738;BME280;17906;47.684;10.806;2022-07-29T05:22:01;93189.41;;;11.31;94.66
16738;BME280;17906;47.684;10.806;2022-07-29T05:24:28;93184.38;;;11.45;94.64
16738;BME280;17906;47.684;10.806;2022-07-29T05:26:54;93183.88;;;11.48;94.88
16738;BME280;17906;47.684;10.806;2022-07-29T05:29:21;93189.41;;;11.58;95.05
16738;BME280;17906;47.684;10.806;2022-07-29T05:31:47;93186.63;;;11.80;95.40
16738;BME280;17906;47.684;10.806;2022-07-29T05:34:14;93189.72;;;11.89;95.16
16738;BME280;17906;47.684;10.806;2022-07-29T05:36:42;93196.88;;;12.00;95.29
16738;BME280;17906;47.684;10.806;2022-07-29T05:39:08;93190.44;;;12.11;95.31
16738;BME280;17906;47.684;10.806;2022-07-29T05:41:35;93188.41;;;12.24;95.18
16738;BME280;17906;47.684;10.806;2022-07-29T05:44:02;93200.78;;;12.41;94.87
16738;BME280;17906;47.684;10.806;2022-07-29T05:46:28;93189.50;;;12.60;95.54
16738;BME280;17906;47.684;10.806;2022-07-29T05:48:55;93195.31;;;12.73;95.22
16738;BME280;17906;47.684;10.806;2022-07-29T05:51:22;93187.47;;;12.87;94.22
16738;BME280;17906;47.684;10.806;2022-07-29T05:53:50;93183.50;;;13.05;93.51
16738;BME280;17906;47.684;10.806;2022-07-29T05:56:16;93182.22;;;13.23;93.71
16738;BME280;17906;47.684;10.806;2022-07-29T05:58:43;93183.66;;;13.41;94.18
16738;BME280;17906;47.684;10.806;2022-07-29T06:01:09;93195.44;;;13.56;92.57
16738;BME280;17906;47.684;10.806;2022-07-29T06:03:36;93190.03;;;13.72;92.16
16738;BME280;17906;47.684;10.806;2022-07-29T06:06:04;93190.91;;;13.87;91.44
16738;BME280;17906;47.684;10.806;2022-07-29T06:08:31;93192.53;;;14.04;92.47
16738;BME280;17906;47.684;10.806;2022-07-29T06:11:00;93187.91;;;14.19;92.77
16738;BME280;17906;47.684;10.806;2022-07-29T06:13:27;93196.94;;;14.35;92.56
16738;BME280;17906;47.684;10.806;2022-07-29T06:15:53;93187.16;;;14.55;92.15
16738;BME280;17906;47.684;10.806;2022-07-29T06:18:20;93196.94;;;14.76;91.67
16738;BME280;17906;47.684;10.806;2022-07-29T06:20:49;93198.81;;;14.96;90.56
16738;BME280;17906;47.684;10.806;2022-07-29T06:23:15;93193.84;;;15.18;88.40
16738;BME280;17906;47.684;10.806;2022-07-29T06:25:42;93193.78;;;15.44;87.68
16738;BME280;17906;47.684;10.806;2022-07-29T06:28:10;93198.63;;;15.57;82.53
16738;BME280;17906;47.684;10.806;2022-07-29T06:30:37;93204.09;;;15.62;79.82
16738;BME280;17906;47.684;10.806;2022-07-29T06:33:04;93193.94;;;15.73;80.95
16738;BME280;17906;47.684;10.806;2022-07-29T06:35:33;93206.63;;;15.98;78.89
16738;BME280;17906;47.684;10.806;2022-07-29T06:38:00;93200.75;;;16.19;80.18
16738;BME280;17906;47.684;10.806;2022-07-29T06:40:27;93207.16;;;16.44;80.79
16738;BME280;17906;47.684;10.806;2022-07-29T06:43:13;93211.22;;;16.51;77.59
16738;BME280;17906;47.684;10.806;2022-07-29T06:45:39;93213.66;;;16.53;79.88
16738;BME280;17906;47.684;10.806;2022-07-29T06:48:08;93205.81;;;16.75;76.72
16738;BME280;17906;47.684;10.806;2022-07-29T06:50:34;93214.84;;;17.05;75.63
16738;BME280;17906;47.684;10.806;2022-07-29T06:53:01;93218.25;;;17.21;72.65
16738;BME280;17906;47.684;10.806;2022-07-29T06:55:27;93229.84;;;17.42;73.34
16738;BME280;17906;47.684;10.806;2022-07-29T06:57:54;93220.47;;;17.48;76.67
16738;BME280;17906;47.684;10.806;2022-07-29T07:00:22;93228.31;;;17.54;71.64
16738;BME280;17906;47.684;10.806;2022-07-29T07:02:48;93225.88;;;17.53;71.96
16738;BME280;17906;47.684;10.806;2022-07-29T07:05:15;93226.16;;;17.51;71.86
16738;BME280;17906;47.684;10.806;2022-07-29T07:07:41;93235.50;;;17.50;69.68
16738;BME280;17906;47.684;10.806;2022-07-29T07:10:08;93237.22;;;17.46;71.40
16738;BME280;17906;47.684;10.806;2022-07-29T07:12:35;93240.47;;;17.48;70.96
16738;BME280;17906;47.684;10.806;2022-07-29T07:15:02;93242.09;;;17.49;74.00
16738;BME280;17906;47.684;10.806;2022-07-29T07:17:30;93250.22;;;17.59;76.49
16738;BME280;17906;47.684;10.806;2022-07-29T07:19:56;93250.94;;;17.65;77.50
16738;BME280;17906;47.684;10.806;2022-07-29T07:22:23;93248.16;;;17.70;71.97
16738;BME280;17906;47.684;10.806;2022-07-29T07:24:50;93245.06;;;17.77;77.22
16738;BME280;17906;47.684;10.806;2022-07-29T07:27:16;93249.97;;;17.80;72.90
16738;BME280;17906;47.684;10.806;2022-07-29T07:29:43;93253.53;;;17.80;74.59
16738;BME280;17906;47.684;10.806;2022-07-29T07:32:10;93240.63;;;17.81;72.27
16738;BME280;17906;47.684;10.806;2022-07-29T07:34:39;93237.75;;;17.91;76.17
16738;BME280;17906;47.684;10.806;2022-07-29T07:37:06;93240.72;;;17.94;69.50
16738;BME280;17906;47.684;10.806;2022-07-29T07:39:32;93240.44;;;17.96;68.80
16738;BME280;17906;47.684;10.806;2022-07-29T07:41:59;93254.53;;;18.08;70.60
16738;BME280;17906;47.684;10.806;2022-07-29T07:44:26;93251.13;;;18.21;77.15
16738;BME280;17906;47.684;10.806;2022-07-29T07:46:53;93243.63;;;18.27;72.44
16738;BME280;17906;47.684;10.806;2022-07-29T07:49:19;93246.72;;;18.39;71.68
16738;BME280;17906;47.684;10.806;2022-07-29T07:51:47;93248.22;;;18.50;71.33
16738;BME280;17906;47.684;10.806;2022-07-29T07:54:14;93251.47;;;18.71;72.65
16738;BME280;17906;47.684;10.806;2022-07-29T07:56:41;93241.47;;;18.94;67.44
16738;BME280;17906;47.684;10.806;2022-07-29T07:59:07;93243.63;;;19.30;65.15
16738;BME280;17906;47.684;10.806;2022-07-29T08:01:34;93245.75;;;19.65;64.06
16738;BME280;17906;47.684;10.806;2022-07-29T08:04:00;93248.22;;;19.94;62.82
16738;BME280;17906;47.684;10.806;2022-07-29T08:06:27;93249.03;;;20.09;62.98
16738;BME280;17906;47.684;10.806;2022-07-29T08:08:55;93241.56;;;20.23;63.18
16738;BME280;17906;47.684;10.806;2022-07-29T08:11:21;93251.84;;;20.31;62.90
16738;BME280;17906;47.684;10.806;2022-07-29T08:13:48;93239.91;;;20.36;60.76
16738;BME280;17906;47.684;10.806;2022-07-29T08:16:15;93249.56;;;20.47;59.11
16738;BME280;17906;47.684;10.806;2022-07-29T08:18:44;93251.19;;;20.48;64.61
16738;BME280;17906;47.684;10.806;2022-07-29T08:21:11;93254.63;;;20.17;65.81
16738;BME280;17906;47.684;10.806;2022-07-29T08:23:38;93257.91;;;19.92;66.64
16738;BME280;17906;47.684;10.806;2022-07-29T08:26:12;93257.09;;;19.78;66.37
16738;BME280;17906;47.684;10.806;2022-07-29T08:28:40;93254.03;;;19.79;62.00
16738;BME280;17906;47.684;10.806;2022-07-29T08:31:09;93262.69;;;19.86;67.74
16738;BME280;17906;47.684;10.806;2022-07-29T08:33:36;93256.97;;;19.83;65.91
16738;BME280;17906;47.684;10.806;2022-07-29T08:36:03;93258.50;;;19.75;62.83
16738;BME280;17906;47.684;10.806;2022-07-29T08:38:29;93255.75;;;19.75;62.95
16738;BME280;17906;47.684;10.806;2022-07-29T08:40:56;93261.16;;;19.80;63.75
16738;BME280;17906;47.684;10.806;2022-07-29T08:43:24;93260.69;;;19.73;60.19
16738;BME280;17906;47.684;10.806;2022-07-29T08:45:51;93261.22;;;19.61;63.04
16738;BME280;17906;47.684;10.806;2022-07-29T08:48:20;93267.75;;;19.52;65.72
16738;BME280;17906;47.684;10.806;2022-07-29T08:50:48;93268.13;;;19.59;63.35
16738;BME280;17906;47.684;10.806;2022-07-29T08:53:17;93258.75;;;19.60;61.52
16738;BME280;17906;47.684;10.806;2022-07-29T08:55:45;93263.06;;;19.66;63.79
16738;BME280;17906;47.684;10.806;2022-07-29T08:58:13;93262.59;;;20.19;63.79
16738;BME280;17906;47.684;10.806;2022-07-29T09:00:44;93260.31;;;20.84;60.71
16738;BME280;17906;47.684;10.806;2022-07-29T09:03:15;93253.53;;;21.13;56.30
16738;BME280;17906;47.684;10.806;2022-07-29T09:05:42;93255.69;;;21.61;53.65
16738;BME280;17906;47.684;10.806;2022-07-29T09:08:12;93257.19;;;22.07;52.80
16738;BME280;17906;47.684;10.806;2022-07-29T09:10:39;93256.25;;;22.85;50.83
16738;BME280;17906;47.684;10.806;2022-07-29T09:13:05;93254.88;;;23.69;49.45
16738;BME280;17906;47.684;10.806;2022-07-29T09:15:32;93255.25;;;24.44;48.12
16738;BME280;17906;47.684;10.806;2022-07-29T09:18:00;93259.53;;;24.92;47.63
16738;BME280;17906;47.684;10.806;2022-07-29T09:20:27;93257.84;;;25.41;43.75
16738;BME280;17906;47.684;10.806;2022-07-29T09:23:14;93256.41;;;25.56;44.45
16738;BME280;17906;47.684;10.806;2022-07-29T09:25:41;93256.06;;;25.58;45.25
16738;BME280;17906;47.684;10.806;2022-07-29T09:28:08;93264.09;;;26.05;42.94
16738;BME280;17906;47.684;10.806;2022-07-29T09:30:36;93258.81;;;26.61;43.20
16738;BME280;17906;47.684;10.806;2022-07-29T09:33:17;93261.28;;;27.14;40.56
16738;BME280;17906;47.684;10.806;2022-07-29T09:35:44;93265.88;;;26.70;41.47
16738;BME280;17906;47.684;10.806;2022-07-29T09:38:11;93260.28;;;26.95;41.90
16738;BME280;17906;47.684;10.806;2022-07-29T09:40:37;93267.09;;;27.09;39.42
16738;BME280;17906;47.684;10.806;2022-07-29T09:43:09;93255.44;;;27.32;42.15
16738;BME280;17906;47.684;10.806;2022-07-29T09:45:36;93262.50;;;27.41;39.04
16738;BME280;17906;47.684;10.806;2022-07-29T09:48:13;93262.06;;;27.39;39.59
16738;BME280;17906;47.684;10.806;2022-07-29T09:50:42;93253.16;;;27.09;40.49
16738;BME280;17906;47.684;10.806;2022-07-29T09:53:09;93259.97;;;26.72;40.93
16738;BME280;17906;47.684;10.806;2022-07-29T09:55:46;93261.81;;;26.80;43.32
16738;BME280;17906;47.684;10.806;2022-07-29T09:58:15;93259.25;;;26.87;42.16
16738;BME280;17906;47.684;10.806;2022-07-29T10:00:43;93265.13;;;27.10;42.53
16738;BME280;17906;47.684;10.806;2022-07-29T10:03:10;93251.56;;;27.08;43.96
16738;BME280;17906;47.684;10.806;2022-07-29T10:05:38;93244.81;;;27.22;43.72
16738;BME280;17906;47.684;10.806;2022-07-29T10:08:07;93252.13;;;27.14;40.14
16738;BME280;17906;47.684;10.806;2022-07-29T10:10:35;93245.09;;;27.04;40.85
16738;BME280;17906;47.684;10.806;2022-07-29T10:13:04;93255.44;;;26.43;42.22
16738;BME280;17906;47.684;10.806;2022-07-29T10:15:32;93244.78;;;25.75;44.84
16738;BME280;17906;47.684;10.806;2022-07-29T10:18:02;93252.84;;;25.35;43.26
16738;BME280;17906;47.684;10.806;2022-07-29T10:20:29;93257.09;;;24.91;46.53
16738;BME280;17906;47.684;10.806;2022-07-29T10:22:56;93256.78;;;24.33;48.33
16738;BME280;17906;47.684;10.806;2022-07-29T10:25:25;93261.66;;;23.98;50.38
16738;BME280;17906;47.684;10.806;2022-07-29T10:27:53;93251.03;;;23.36;47.21
16738;BME280;17906;47.684;10.806;2022-07-29T10:30:23;93258.69;;;22.87;53.67
16738;BME280;17906;47.684;10.806;2022-07-29T10:33:14;93262.56;;;22.12;51.39
16738;BME280;17906;47.684;10.806;2022-07-29T10:36:05;93269.31;;;22.37;52.21
16738;BME280;17906;47.684;10.806;2022-07-29T10:38:43;93266.94;;;22.70;54.13
16738;BME280;17906;47.684;10.806;2022-07-29T10:41:24;93259.34;;;23.01;50.49
16738;BME280;17906;47.684;10.806;2022-07-29T10:44:00;93266.03;;;23.00;51.08
16738;BME280;17906;47.684;10.806;2022-07-29T10:46:27;93260.16;;;23.10;50.47
16738;BME280;17906;47.684;10.806;2022-07-29T10:49:04;93268.28;;;22.72;50.73
16738;BME280;17906;47.684;10.806;2022-07-29T10:51:50;93267.91;;;22.65;54.66
16738;BME280;17906;47.684;10.806;2022-07-29T10:54:17;93266.38;;;22.33;53.30
16738;BME280;17906;47.684;10.806;2022-07-29T10:56:45;93262.94;;;22.27;50.85
16738;BME280;17906;47.684;10.806;2022-07-29T10:59:25;93259.28;;;22.01;51.07
16738;BME280;17906;47.684;10.806;2022-07-29T11:01:53;93265.41;;;21.98;50.16
16738;BME280;17906;47.684;10.806;2022-07-29T11:04:59;93267.38;;;21.66;54.93
16738;BME280;17906;47.684;10.806;2022-07-29T11:07:26;93261.09;;;21.75;52.74
16738;BME280;17906;47.684;10.806;2022-07-29T11:10:20;93268.38;;;21.70;51.69
16738;BME280;17906;47.684;10.806;2022-07-29T11:12:48;93269.88;;;21.77;53.02
16738;BME280;17906;47.684;10.806;2022-07-29T11:15:17;93276.03;;;21.74;51.97
16738;BME280;17906;47.684;10.806;2022-07-29T11:18:07;93276.94;;;21.60;51.83
16738;BME280;17906;47.684;10.806;2022-07-29T11:20:37;93272.84;;;21.58;51.44
16738;BME280;17906;47.684;10.806;2022-07-29T11:23:18;93263.91;;;21.52;52.08
16738;BME280;17906;47.684;10.806;2022-07-29T11:25:45;93271.03;;;21.53;51.28
16738;BME280;17906;47.684;10.806;2022-07-29T11:28:18;93272.66;;;21.54;52.95
16738;BME280;17906;47.684;10.806;2022-07-29T11:30:47;93269.81;;;21.37;54.32
16738;BME280;17906;47.684;10.806;2022-07-29T11:33:27;93278.00;;;21.06;54.95
16738;BME280;17906;47.684;10.806;2022-07-29T11:36:10;93267.81;;;20.93;54.19
16738;BME280;17906;47.684;10.806;2022-07-29T11:38:37;93269.31;;;20.76;53.05
16738;BME280;17906;47.684;10.806;2022-07-29T11:41:19;93270.69;;;20.65;53.71
16738;BME280;17906;47.684;10.806;2022-07-29T11:43:48;93264.03;;;20.66;55.05
16738;BME280;17906;47.684;10.806;2022-07-29T11:46:18;93266.72;;;20.58;54.24
16738;BME280;17906;47.684;10.806;2022-07-29T11:48:44;93265.66;;;20.67;55.21
16738;BME280;17906;47.684;10.806;2022-07-29T11:51:11;93265.13;;;20.79;54.08
16738;BME280;17906;47.684;10.806;2022-07-29T11:53:38;93258.13;;;20.73;53.77
16738;BME280;17906;47.684;10.806;2022-07-29T11:56:08;93259.44;;;20.75;54.85
16738;BME280;17906;47.684;10.806;2022-07-29T11:58:35;93254.97;;;20.66;54.20
16738;BME280;17906;47.684;10.806;2022-07-29T12:01:03;93256.03;;;20.78;55.91
16738;BME280;17906;47.684;10.806;2022-07-29T12:03:30;93253.78;;;20.80;55.38
16738;BME280;17906;47.684;10.806;2022-07-29T12:05:57;93254.41;;;20.77;53.48
16738;BME280;17906;47.684;10.806;2022-07-29T12:08:23;93255.47;;;20.68;53.35
16738;BME280;17906;47.684;10.806;2022-07-29T12:10:51;93254.78;;;20.62;52.89
16738;BME280;17906;47.684;10.806;2022-07-29T12:13:19;93250.78;;;20.68;52.64
16738;BME280;17906;47.684;10.806;2022-07-29T12:15:53;93250.22;;;20.80;53.69
16738;BME280;17906;47.684;10.806;2022-07-29T12:18:21;93248.34;;;20.89;52.26
16738;BME280;17906;47.684;10.806;2022-07-29T12:20:49;93247.69;;;21.06;54.17
16738;BME280;17906;47.684;10.806;2022-07-29T12:23:22;93234.31;;;20.99;53.31
16738;BME280;17906;47.684;10.806;2022-07-29T12:25:49;93250.69;;;20.96;51.04
16738;BME280;17906;47.684;10.806;2022-07-29T12:28:16;93240.72;;;21.08;52.95
16738;BME280;17906;47.684;10.806;2022-07-29T12:30:45;93229.59;;;21.22;51.57
16738;BME280;17906;47.684;10.806;2022-07-29T12:33:19;93230.09;;;21.47;50.10
16738;BME280;17906;47.684;10.806;2022-07-29T12:35:50;93216.66;;;21.85;50.29
16738;BME280;17906;47.684;10.806;2022-07-29T12:38:17;93214.22;;;22.40;47.43
16738;BME280;17906;47.684;10.806;2022-07-29T12:40:46;93221.63;;;22.79;44.91
16738;BME280;17906;47.684;10.806;2022-07-29T12:43:14;93217.34;;;23.17;45.78
16738;BME280;17906;47.684;10.806;2022-07-29T12:45:43;93211.81;;;23.17;43.79
16738;BME280;17906;47.684;10.806;2022-07-29T12:48:11;93208.72;;;23.35;45.93
16738;BME280;17906;47.684;10.806;2022-07-29T12:50:54;93202.84;;;23.28;44.66
16738;BME280;17906;47.684;10.806;2022-07-29T12:53:20;93214.28;;;23.01;42.66
16738;BME280;17906;47.684;10.806;2022-07-29T12:55:49;93215.59;;;22.86;41.47
16738;BME280;17906;47.684;10.806;2022-07-29T12:58:26;93217.22;;;22.96;44.10
16738;BME280;17906;47.684;10.806;2022-07-29T13:01:05;93203.53;;;23.08;43.96
16738;BME280;17906;47.684;10.806;2022-07-29T13:03:57;93201.22;;;23.36;42.62